createdAt,value
2023-03-10T00:02:13.147Z,17.52
2023-03-10T00:08:15.151Z,16.13
2023-03-10T00:14:17.183Z,14.95
2023-03-10T00:20:19.046Z,16.77
2023-03-10T00:26:22.432Z,15.52
2023-03-10T00:32:24.225Z,15.15
2023-03-10T00:38:25.951Z,15.00
2023-03-10T00:44:28.298Z,14.32
2023-03-10T00:50:30.059Z,13.38
2023-03-10T00:56:31.865Z,13.95
2023-03-10T01:02:33.626Z,12.60
2023-03-10T01:08:35.403Z,13.15
2023-03-10T01:14:37.187Z,12.60
2023-03-10T01:20:41.569Z,13.65
2023-03-10T01:26:43.637Z,13.88
2023-03-10T01:32:47.404Z,13.60
2023-03-10T01:38:49.961Z,11.15
2023-03-10T01:45:30.757Z,11.85
2023-03-10T01:51:36.116Z,11.95
2023-03-10T01:57:43.612Z,10.52
2023-03-10T02:04:00.787Z,10.95
2023-03-10T02:10:03.639Z,10.77
2023-03-10T02:16:05.962Z,10.23
2023-03-10T02:22:10.725Z,10.27
2023-03-10T02:28:14.648Z,9.60
2023-03-10T02:34:19.424Z,9.82
2023-03-10T02:40:46.989Z,10.80
2023-03-10T02:46:55.209Z,9.82
2023-03-10T02:53:11.297Z,9.25
2023-03-10T02:59:15.002Z,8.95
2023-03-10T03:05:21.562Z,9.18
2023-03-10T03:11:24.226Z,8.10
2023-03-10T03:17:28.733Z,7.53
2023-03-10T03:23:30.830Z,7.60
2023-03-10T03:29:33.772Z,8.88
2023-03-10T03:35:37.273Z,7.28
2023-03-10T03:41:40.325Z,7.32
2023-03-10T03:47:45.326Z,7.10
2023-03-10T03:53:47.350Z,4.88
2023-03-10T03:59:49.402Z,4.70
2023-03-10T04:05:54.581Z,3.45
2023-03-10T04:11:56.737Z,2.70
2023-03-10T04:17:59.016Z,2.30
2023-03-10T04:24:02.717Z,2.20
2023-03-10T04:30:07.859Z,2.03
2023-03-10T04:36:13.161Z,1.80
2023-03-10T04:42:15.189Z,2.08
2023-03-10T04:48:17.469Z,1.70
2023-03-10T04:54:19.273Z,2.30
2023-03-10T05:00:21.209Z,2.22
2023-03-10T05:06:24.136Z,4.38
2023-03-10T05:12:45.235Z,2.05
2023-03-10T05:18:47.758Z,2.00
2023-03-10T05:24:52.741Z,1.80
2023-03-10T05:30:54.898Z,1.38
2023-03-10T05:36:56.960Z,1.33
2023-03-10T05:42:59.282Z,1.20
2023-03-10T05:49:01.348Z,0.90
2023-03-10T05:55:03.750Z,1.00
2023-03-10T06:01:06.559Z,1.00
2023-03-10T06:07:08.464Z,1.00
2023-03-10T06:13:10.500Z,1.10
2023-03-10T06:19:12.186Z,1.70
2023-03-10T06:25:16.601Z,2.00
2023-03-10T06:31:22.122Z,1.60
2023-03-10T06:37:23.866Z,1.10
2023-03-10T06:43:25.750Z,0.60
2023-03-10T06:49:32.596Z,1.30
2023-03-10T06:55:34.396Z,1.17
2023-03-10T07:01:36.550Z,0.90
2023-03-10T07:07:38.617Z,1.40
2023-03-10T07:13:40.696Z,1.02
2023-03-10T07:19:42.501Z,1.00
2023-03-10T07:25:44.210Z,0.80
2023-03-10T07:31:46.006Z,1.67
2023-03-10T07:37:47.732Z,1.20
2023-03-10T07:43:53.857Z,2.08
2023-03-10T07:49:55.732Z,2.00
2023-03-10T07:55:57.778Z,2.08
2023-03-10T08:01:59.550Z,2.45
2023-03-10T08:08:01.541Z,2.20
2023-03-10T08:14:04.241Z,2.47
2023-03-10T08:20:06.998Z,2.30
2023-03-10T08:26:13.063Z,1.95
2023-03-10T08:32:15.031Z,2.10
2023-03-10T08:38:16.767Z,1.95
2023-03-10T08:44:19.548Z,2.20
2023-03-10T08:50:21.415Z,2.05
2023-03-10T08:56:24.473Z,1.92
2023-03-10T09:02:28.216Z,2.42
2023-03-10T09:08:29.986Z,2.38
2023-03-10T09:14:31.752Z,1.40
2023-03-10T09:20:36.104Z,1.48
2023-03-10T09:26:37.784Z,1.17
2023-03-10T09:32:42.315Z,1.50
2023-03-10T09:38:44.320Z,1.30
2023-03-10T09:45:04.124Z,1.25
2023-03-10T09:51:18.054Z,1.50
2023-03-10T09:57:23.600Z,1.10
2023-03-10T10:03:53.104Z,1.27
2023-03-10T10:10:15.134Z,1.50
2023-03-10T10:16:35.630Z,2.10
2023-03-10T10:22:39.179Z,1.73
2023-03-10T10:28:50.763Z,1.60
2023-03-10T10:35:12.639Z,1.33
2023-03-10T10:41:29.408Z,1.17
2023-03-10T10:47:37.008Z,1.40
2023-03-10T10:53:42.080Z,1.30
2023-03-10T10:59:43.856Z,1.17
2023-03-10T11:05:45.552Z,1.05
2023-03-10T11:12:05.569Z,1.15
2023-03-10T11:18:17.370Z,1.20
2023-03-10T11:24:39.206Z,0.93
2023-03-10T11:30:54.424Z,1.05
2023-03-10T11:37:29.845Z,0.77
2023-03-10T11:43:58.001Z,0.70
2023-03-10T11:50:28.884Z,0.70
2023-03-10T11:56:31.476Z,0.40
2023-03-10T12:03:15.157Z,0.40
2023-03-10T12:09:29.565Z,0.90
2023-03-10T12:15:37.011Z,0.60
2023-03-10T12:21:38.982Z,0.90
2023-03-10T12:28:15.767Z,1.00
2023-03-10T12:34:22.835Z,0.68
2023-03-10T12:40:51.324Z,1.00
2023-03-10T12:53:56.948Z,1.00
2023-03-10T13:00:01.997Z,1.13
2023-03-10T13:06:06.461Z,1.08
2023-03-10T13:12:25.134Z,1.30
2023-03-10T13:18:29.601Z,1.10
2023-03-10T13:24:33.783Z,1.13
2023-03-10T13:30:35.509Z,0.95
2023-03-10T13:36:39.110Z,1.02
2023-03-10T13:42:44.465Z,1.27
2023-03-10T13:48:47.631Z,1.20
2023-03-10T13:54:50.437Z,0.90
2023-03-10T14:00:56.231Z,0.98
2023-03-10T14:07:18.431Z,1.10
2023-03-10T14:13:43.853Z,1.10
2023-03-10T14:19:48.354Z,1.25
2023-03-10T14:25:52.961Z,1.50
2023-03-10T14:31:54.761Z,0.90
2023-03-10T14:37:57.332Z,0.95
2023-03-10T14:44:01.199Z,0.60
2023-03-10T14:50:02.994Z,0.80
2023-03-10T14:56:05.033Z,1.13
2023-03-10T15:02:14.897Z,0.70
2023-03-10T15:08:18.048Z,1.00
2023-03-10T15:14:19.960Z,1.15
2023-03-10T15:20:25.367Z,2.38
2023-03-10T15:26:27.100Z,1.05
2023-03-10T15:32:28.935Z,0.80
2023-03-10T15:38:30.737Z,2.60
2023-03-10T15:44:33.655Z,3.15
2023-03-10T15:50:35.897Z,3.50
2023-03-10T15:56:37.790Z,2.85
2023-03-10T16:02:39.703Z,3.20
2023-03-10T16:08:42.210Z,3.03
2023-03-10T16:14:44.173Z,3.15
2023-03-10T16:20:55.568Z,3.53
2023-03-10T16:26:57.366Z,3.70
2023-03-10T16:33:00.777Z,4.13
2023-03-10T16:39:08.572Z,3.80
2023-03-10T16:45:10.895Z,3.60
2023-03-10T16:51:21.850Z,1.58
2023-03-10T16:57:26.352Z,1.80
2023-03-10T17:03:28.205Z,1.85
2023-03-10T17:09:30.040Z,2.17
2023-03-10T17:15:31.778Z,1.35
2023-03-10T17:21:38.311Z,3.00
2023-03-10T17:27:42.380Z,2.00
2023-03-10T17:33:45.157Z,4.97
2023-03-10T17:39:48.209Z,2.08
2023-03-10T17:46:04.602Z,2.40
2023-03-10T17:52:06.668Z,2.10
2023-03-10T17:58:08.422Z,1.95
2023-03-10T18:04:10.386Z,2.00
2023-03-10T18:10:12.889Z,2.40
2023-03-10T18:16:18.257Z,2.25
2023-03-10T18:22:20.117Z,3.40
2023-03-10T18:28:23.447Z,1.75
2023-03-10T18:34:25.604Z,0.80
2023-03-10T18:40:27.335Z,1.50
2023-03-10T18:46:29.238Z,0.80
2023-03-10T18:52:33.114Z,0.30
2023-03-10T18:58:34.987Z,0.25
2023-03-10T19:04:37.153Z,0.40
2023-03-10T19:10:39.595Z,0.38
2023-03-10T19:16:42.755Z,0.50
2023-03-10T19:22:49.626Z,0.40
2023-03-10T19:28:51.423Z,0.30
2023-03-10T19:34:53.389Z,0.32
2023-03-10T19:40:55.226Z,0.80
2023-03-10T19:46:57.126Z,0.50
2023-03-10T19:52:58.948Z,0.60
2023-03-10T19:59:01.414Z,0.55
2023-03-10T20:05:03.314Z,0.30
2023-03-10T20:11:05.570Z,0.40
2023-03-10T20:17:08.084Z,0.50
2023-03-10T20:23:09.880Z,0.50
2023-03-10T20:29:15.422Z,1.30
2023-03-10T20:35:21.153Z,0.75
2023-03-10T20:41:25.702Z,0.60
2023-03-10T20:47:27.548Z,0.63
2023-03-10T20:53:33.172Z,0.95
2023-03-10T20:59:36.152Z,1.25
2023-03-10T21:05:38.425Z,0.70
2023-03-10T21:11:40.746Z,1.00
2023-03-10T21:17:43.186Z,1.98
2023-03-10T21:23:47.812Z,2.50
2023-03-10T21:29:49.717Z,3.00
2023-03-10T21:35:51.752Z,3.63
2023-03-10T21:41:53.632Z,3.72
2023-03-10T21:47:55.634Z,4.60
2023-03-10T21:53:58.219Z,6.00
2023-03-10T22:00:00.430Z,7.57
2023-03-10T22:06:04.982Z,7.80
2023-03-10T22:12:07.288Z,9.05
2023-03-10T22:18:09.428Z,9.55
2023-03-10T22:24:13.837Z,10.73
2023-03-10T22:30:16.216Z,12.93
2023-03-10T22:36:19.166Z,14.90
2023-03-10T22:42:21.267Z,15.45
2023-03-10T22:48:23.698Z,15.88
2023-03-10T22:54:26.649Z,14.48
2023-03-10T23:00:29.667Z,13.23
2023-03-10T23:06:33.717Z,10.75
2023-03-10T23:12:35.933Z,10.35
2023-03-10T23:18:37.982Z,9.80
2023-03-10T23:24:42.845Z,10.57
2023-03-10T23:30:47.606Z,10.57
2023-03-10T23:36:57.389Z,13.27
2023-03-10T23:43:01.398Z,15.45
2023-03-10T23:49:06.058Z,15.60
2023-03-10T23:55:08.390Z,14.90
